Daly City, CA

4:15 PM PST on March 04, 2015 (GMT -0800)
Crocker Amazon | Change Station
CLOSE
Current Station
Personal Weather Station
Location: San Francisco, CA
Elevation: 420 ft
Nearby Weather Stations

Elev 420 ft 37.71 °N, 122.44 °W | Updated 14 minutes ago

Clear
Clear
62.4 °F
Feels Like 62.4 °F
N
1.1
Wind Variable Wind from SW

Today
High -- | Low -- °F
--% Chance of Precip.
Yesterday
High -- | Low -- °F
Precip. -- in
6:37 AM 6:06 PM
Waxing Gibbous, 99% visible
Pressure 30.14 in
Visibility 10.0 miles
Clouds Few 2500 ft
Dew Point 49 °F
Humidity 61%
Rainfall 0.00 in
Snow Depth Not available.
UV 2 out of 12
Pollen 8.40 out of 12
Air Quality Not available.
Flu Activity Not available.
METAR KSFO 042356Z 35005KT 10SM FEW025 18/07 A3014 RMK AO2 SLP205 T01830072 10189 20133 55002

More Conditions Fewer Conditions

Pressure 30.14 in
Visibility 10.0 miles
Clouds Few 2500 ft
Dew Point 49 °F
Humidity 61%
Rainfall 0.00 in
Snow Depth Not available.
UV 2 out of 12
Pollen 8.40 out of 12
Air Quality Not available.
Flu Activity Not available.
METAR KSFO 042356Z 35005KT 10SM FEW025 18/07 A3014 RMK AO2 SLP205 T01830072 10189 20133 55002

More Conditions Fewer Conditions

10-Day Weather Forecast

Almanac

Astronomy

Mar. 04, 2015 Rise Set
Actual Time
Civil Twilight
Nautical Twilight
Astronomical Twilight
Moon
Length of Visible Light
Length of Day
Tomorrow will be .
, % of the Moon is Illuminated

Today's Extremes

State Highs State Lows

Community

WunderPhotos

Upload Photos

1,802,601 photos uploaded!

WunderBlogs® & News

Nearby

Air Quality

  Air Quality AQ Index Pollutant
Not available.

Snow Depth

Station Depth Elevation

Earthquake Activity

City Distance Mag. Time & Date
Minimum magnitude displayed is 2.5.

Coastal Water Temperatures

Place Temperature

Nearby Weather Stations